createdAt,value
2023-01-13T00:01:49.664Z,10.26
2023-01-13T00:03:55.724Z,10.27
2023-01-13T00:06:09.541Z,10.16
2023-01-13T00:08:18.600Z,10.38
2023-01-13T00:10:23.851Z,10.39
2023-01-13T00:12:32.595Z,10.42
2023-01-13T00:14:36.799Z,10.49
2023-01-13T00:16:39.630Z,10.38
2023-01-13T00:18:42.420Z,10.44
2023-01-13T00:20:45.333Z,10.52
2023-01-13T00:22:49.412Z,10.47
2023-01-13T00:24:51.700Z,10.52
2023-01-13T00:26:56.531Z,10.53
2023-01-13T00:29:01.333Z,10.36
2023-01-13T00:31:11.476Z,10.37
2023-01-13T00:33:13.929Z,10.44
2023-01-13T00:35:16.107Z,10.36
2023-01-13T00:37:34.354Z,10.44
2023-01-13T00:39:37.791Z,10.23
2023-01-13T00:41:43.146Z,10.29
2023-01-13T00:43:45.944Z,10.23
2023-01-13T00:45:48.055Z,10.25
2023-01-13T00:47:50.469Z,10.36
2023-01-13T00:49:52.720Z,10.31
2023-01-13T00:51:58.929Z,10.02
2023-01-13T00:54:01.171Z,10.23
2023-01-13T00:56:10.433Z,10.04
2023-01-13T00:58:12.538Z,10.01
2023-01-13T01:00:15.355Z,10.17
2023-01-13T01:02:19.718Z,10.02
2023-01-13T01:04:22.212Z,10.05
2023-01-13T01:06:26.807Z,9.93
2023-01-13T01:08:29.334Z,10.09
2023-01-13T01:10:31.633Z,10.05
2023-01-13T01:12:35.246Z,10.07
2023-01-13T01:14:43.418Z,10.08
2023-01-13T01:16:45.544Z,10.02
2023-01-13T01:18:49.569Z,9.94
2023-01-13T01:20:54.694Z,9.96
2023-01-13T01:22:57.033Z,9.86
2023-01-13T01:24:59.137Z,9.90
2023-01-13T01:27:01.710Z,9.81
2023-01-13T01:29:17.679Z,9.91
2023-01-13T01:31:24.850Z,10.10
2023-01-13T01:33:32.671Z,9.97
2023-01-13T01:35:41.694Z,10.08
2023-01-13T01:37:51.538Z,10.13
2023-01-13T01:39:53.769Z,10.01
2023-01-13T01:41:58.958Z,10.08
2023-01-13T01:44:08.723Z,10.01
2023-01-13T01:46:10.919Z,9.98
2023-01-13T01:48:13.134Z,9.92
2023-01-13T01:50:16.847Z,9.89
2023-01-13T01:52:27.440Z,9.83
2023-01-13T01:54:38.160Z,9.86
2023-01-13T01:56:44.098Z,9.78
2023-01-13T01:58:51.768Z,9.85
2023-01-13T02:00:54.252Z,9.99
2023-01-13T02:02:57.602Z,9.96
2023-01-13T02:05:01.007Z,9.89
2023-01-13T02:07:10.772Z,9.94
2023-01-13T02:09:13.715Z,9.85
2023-01-13T02:11:42.018Z,9.92
2023-01-13T02:13:47.034Z,9.79
2023-01-13T02:15:57.963Z,9.80
2023-01-13T02:18:02.418Z,9.94
2023-01-13T02:20:16.298Z,9.97
2023-01-13T02:22:27.439Z,10.02
2023-01-13T02:24:37.739Z,9.90
2023-01-13T02:26:47.863Z,9.93
2023-01-13T02:29:04.034Z,9.89
2023-01-13T02:31:18.052Z,9.83
2023-01-13T02:33:23.827Z,9.84
2023-01-13T02:35:37.060Z,9.83
2023-01-13T02:37:43.033Z,9.82
2023-01-13T02:39:49.314Z,9.83
2023-01-13T02:42:08.674Z,9.99
2023-01-13T02:44:18.439Z,9.95
2023-01-13T02:46:29.747Z,9.86
2023-01-13T02:48:32.666Z,10.02
2023-01-13T02:51:32.690Z,10.02
2023-01-13T02:53:53.579Z,9.87
2023-01-13T02:55:57.939Z,9.85
2023-01-13T02:58:12.170Z,9.78
2023-01-13T03:00:17.131Z,9.87
2023-01-13T03:02:21.950Z,9.77
2023-01-13T03:04:30.438Z,9.83
2023-01-13T03:06:48.638Z,9.70
2023-01-13T03:08:59.633Z,9.73
2023-01-13T03:11:08.077Z,9.81
2023-01-13T03:13:17.957Z,9.66
2023-01-13T03:15:23.798Z,9.81
2023-01-13T03:17:39.600Z,9.42
2023-01-13T03:19:45.211Z,9.75
2023-01-13T03:21:56.969Z,9.65
2023-01-13T03:24:05.756Z,9.64
2023-01-13T03:26:15.952Z,9.72
2023-01-13T03:28:28.601Z,9.59
2023-01-13T03:30:37.892Z,9.81
2023-01-13T03:32:45.850Z,9.85
2023-01-13T03:34:54.747Z,9.86
2023-01-13T03:37:00.446Z,9.79
2023-01-13T03:39:15.031Z,9.87
2023-01-13T03:41:29.515Z,9.74
2023-01-13T03:43:43.851Z,9.68
2023-01-13T03:45:52.720Z,9.46
2023-01-13T03:48:00.075Z,9.67
2023-01-13T03:50:17.969Z,9.66
2023-01-13T03:52:26.337Z,9.57
2023-01-13T03:54:33.432Z,9.58
2023-01-13T03:56:47.623Z,9.62
2023-01-13T03:58:53.367Z,9.66
2023-01-13T04:01:01.685Z,9.58
2023-01-13T04:03:09.876Z,9.47
2023-01-13T04:05:13.260Z,9.61
2023-01-13T04:07:24.016Z,9.68
2023-01-13T04:09:33.466Z,9.54
2023-01-13T04:11:43.595Z,9.61
2023-01-13T04:13:49.101Z,9.77
2023-01-13T04:15:51.544Z,9.85
2023-01-13T04:17:54.015Z,9.89
2023-01-13T04:19:56.365Z,9.80
2023-01-13T04:21:58.502Z,9.72
2023-01-13T04:24:00.548Z,9.63
2023-01-13T04:26:11.027Z,9.81
2023-01-13T04:28:14.453Z,9.79
2023-01-13T04:30:18.225Z,9.73
2023-01-13T04:32:20.478Z,9.91
2023-01-13T04:34:30.027Z,9.74
2023-01-13T04:36:32.211Z,9.82
2023-01-13T04:38:39.479Z,9.74
2023-01-13T04:40:42.655Z,9.65
2023-01-13T04:42:45.540Z,9.52
2023-01-13T04:44:50.689Z,9.38
2023-01-13T04:46:53.002Z,9.52
2023-01-13T04:48:55.091Z,9.68
2023-01-13T04:51:00.839Z,9.55
2023-01-13T04:53:03.229Z,9.60
2023-01-13T04:55:06.012Z,9.65
2023-01-13T04:57:08.311Z,9.65
2023-01-13T04:59:13.676Z,9.40
2023-01-13T05:01:15.827Z,9.37
2023-01-13T05:03:18.969Z,9.54
2023-01-13T05:05:21.607Z,9.77
2023-01-13T05:07:24.231Z,9.81
2023-01-13T05:09:29.269Z,9.59
2023-01-13T05:11:34.503Z,9.58
2023-01-13T05:13:39.700Z,9.61
2023-01-13T05:15:46.988Z,9.59
2023-01-13T05:17:50.532Z,9.61
2023-01-13T05:19:52.975Z,9.35
2023-01-13T05:22:02.303Z,9.49
2023-01-13T05:24:07.631Z,9.46
2023-01-13T05:26:09.850Z,9.53
2023-01-13T05:28:12.050Z,9.45
2023-01-13T05:30:15.509Z,9.54
2023-01-13T05:32:17.709Z,9.63
2023-01-13T05:34:22.070Z,9.36
2023-01-13T05:36:24.324Z,9.51
2023-01-13T05:38:26.656Z,9.62
2023-01-13T05:40:31.826Z,9.41
2023-01-13T05:42:37.088Z,9.61
2023-01-13T05:44:39.326Z,9.51
2023-01-13T05:46:42.267Z,9.63
2023-01-13T05:48:54.446Z,9.53
2023-01-13T05:50:57.319Z,9.43
2023-01-13T05:53:05.273Z,9.44
2023-01-13T05:55:07.872Z,9.51
2023-01-13T05:57:10.001Z,9.57
2023-01-13T05:59:12.227Z,9.52
2023-01-13T06:01:14.571Z,9.68
2023-01-13T06:03:21.312Z,9.50
2023-01-13T06:06:09.978Z,9.64
2023-01-13T06:08:24.683Z,9.50
2023-01-13T06:10:27.591Z,9.66
2023-01-13T06:12:35.794Z,9.63
2023-01-13T06:14:41.421Z,9.59
2023-01-13T06:16:51.950Z,9.53
2023-01-13T06:18:54.868Z,9.42
2023-01-13T06:20:57.541Z,9.65
2023-01-13T06:23:07.788Z,9.62
2023-01-13T06:25:27.520Z,9.77
2023-01-13T06:27:30.696Z,9.62
2023-01-13T06:29:32.985Z,9.57
2023-01-13T06:31:43.145Z,9.50
2023-01-13T06:33:51.173Z,9.51
2023-01-13T06:36:03.893Z,9.59
2023-01-13T06:38:10.562Z,9.38
2023-01-13T06:40:15.623Z,9.39
2023-01-13T06:42:36.566Z,9.61
2023-01-13T06:44:38.870Z,9.67
2023-01-13T06:46:45.505Z,9.58
2023-01-13T06:48:47.542Z,9.60
2023-01-13T06:50:51.045Z,9.64
2023-01-13T06:52:53.751Z,9.62
2023-01-13T06:54:58.720Z,9.70
2023-01-13T06:57:03.528Z,9.70
2023-01-13T06:59:08.723Z,9.44
2023-01-13T07:01:13.747Z,9.62
2023-01-13T07:03:20.216Z,9.64
2023-01-13T07:05:22.946Z,9.75
2023-01-13T07:07:28.085Z,9.73
2023-01-13T07:09:33.012Z,9.73
2023-01-13T07:11:42.217Z,9.74
2023-01-13T07:13:47.410Z,9.86
2023-01-13T07:15:53.772Z,9.94
2023-01-13T07:18:08.439Z,9.90
2023-01-13T07:20:14.503Z,9.69
2023-01-13T07:22:17.002Z,9.94
2023-01-13T07:24:20.112Z,9.59
2023-01-13T07:26:22.339Z,9.77
2023-01-13T07:28:31.384Z,9.76
2023-01-13T07:30:42.136Z,9.77
2023-01-13T07:32:44.272Z,9.72
2023-01-13T07:34:48.768Z,9.85
2023-01-13T07:36:51.057Z,9.87
2023-01-13T07:38:54.938Z,9.69
2023-01-13T07:40:57.227Z,9.79
2023-01-13T07:43:05.371Z,9.74
2023-01-13T07:45:40.967Z,9.86
2023-01-13T07:47:43.392Z,9.81
2023-01-13T07:49:45.772Z,9.84
2023-01-13T07:51:50.720Z,10.00
2023-01-13T07:53:52.923Z,9.94
2023-01-13T07:55:58.007Z,9.92
2023-01-13T07:58:00.445Z,10.02
2023-01-13T08:00:15.416Z,10.04
2023-01-13T08:02:19.061Z,9.83
2023-01-13T08:04:30.629Z,9.97
2023-01-13T08:06:33.127Z,9.92
2023-01-13T08:08:38.748Z,9.94
2023-01-13T08:13:17.517Z,10.05
2023-01-13T08:15:42.850Z,9.99
2023-01-13T08:17:50.142Z,10.04
2023-01-13T08:20:00.083Z,10.10
2023-01-13T08:22:11.889Z,10.04
2023-01-13T08:24:16.858Z,10.00
2023-01-13T08:26:19.264Z,10.06
2023-01-13T08:28:24.190Z,9.99
2023-01-13T08:30:37.990Z,10.04
2023-01-13T08:32:44.375Z,10.08
2023-01-13T08:34:51.898Z,10.16
2023-01-13T08:36:57.132Z,10.25
2023-01-13T08:38:59.413Z,10.26
2023-01-13T08:41:10.442Z,10.20
2023-01-13T08:43:19.619Z,10.22
2023-01-13T08:45:22.215Z,10.20
2023-01-13T08:47:36.315Z,10.21
2023-01-13T08:49:38.795Z,10.15
2023-01-13T08:51:54.579Z,10.16
2023-01-13T08:53:56.917Z,10.30
2023-01-13T08:56:02.089Z,10.17
2023-01-13T09:01:23.866Z,10.18
2023-01-13T09:03:29.626Z,10.04
2023-01-13T09:05:50.327Z,10.03
2023-01-13T09:07:54.616Z,10.13
2023-01-13T09:10:02.675Z,10.15
2023-01-13T09:12:13.172Z,10.25
2023-01-13T09:14:20.966Z,10.24
2023-01-13T09:16:31.924Z,10.13
2023-01-13T09:18:37.495Z,10.24
2023-01-13T09:20:43.702Z,10.25
2023-01-13T09:22:51.266Z,10.21
2023-01-13T09:25:43.063Z,10.45
2023-01-13T09:27:48.648Z,10.37
2023-01-13T09:29:51.398Z,10.37
2023-01-13T09:34:38.359Z,10.51
2023-01-13T09:36:40.678Z,10.48
2023-01-13T09:38:42.892Z,10.51
2023-01-13T09:40:53.138Z,10.49
2023-01-13T09:43:17.662Z,10.74
2023-01-13T09:45:24.374Z,10.77
2023-01-13T09:47:33.104Z,10.52
2023-01-13T09:50:04.515Z,10.53
2023-01-13T09:55:41.377Z,10.62
2023-01-13T10:01:57.485Z,10.57
2023-01-13T10:03:30.748Z,10.74
2023-01-13T10:05:36.514Z,10.75
2023-01-13T10:07:49.606Z,10.81
2023-01-13T10:10:03.206Z,10.66
2023-01-13T10:12:23.033Z,10.76
2023-01-13T10:14:32.688Z,10.76
2023-01-13T10:16:42.494Z,10.78
2023-01-13T10:19:05.028Z,10.88
2023-01-13T10:21:13.618Z,10.70
2023-01-13T10:23:26.458Z,10.81
2023-01-13T10:25:41.119Z,10.83
2023-01-13T10:27:47.180Z,10.85
2023-01-13T10:29:49.479Z,10.87
2023-01-13T10:35:04.120Z,11.11
2023-01-13T10:37:35.039Z,11.14
2023-01-13T10:39:45.033Z,11.21
2023-01-13T10:42:07.219Z,11.14
2023-01-13T10:44:17.087Z,11.12
2023-01-13T10:46:39.119Z,11.15
2023-01-13T10:48:57.751Z,11.18
2023-01-13T10:51:18.017Z,11.21
2023-01-13T10:53:29.822Z,11.18
2023-01-13T10:55:39.959Z,11.07
2023-01-13T10:58:03.335Z,11.10
2023-01-13T11:00:31.415Z,11.13
2023-01-13T11:02:40.608Z,11.22
2023-01-13T11:04:49.477Z,11.27
2023-01-13T11:06:53.136Z,11.35
2023-01-13T11:08:59.453Z,11.27
2023-01-13T11:11:02.916Z,11.43
2023-01-13T11:13:16.897Z,11.39
2023-01-13T11:15:29.137Z,11.48
2023-01-13T11:17:47.598Z,11.53
2023-01-13T11:20:00.852Z,11.65
2023-01-13T11:22:09.896Z,11.69
2023-01-13T11:24:22.181Z,11.62
2023-01-13T11:26:38.217Z,11.61
2023-01-13T11:28:52.302Z,11.66
2023-01-13T11:31:00.958Z,11.54
2023-01-13T11:33:17.352Z,11.40
2023-01-13T11:35:22.247Z,11.50
2023-01-13T11:37:31.226Z,11.49
2023-01-13T11:39:39.666Z,11.47
2023-01-13T11:41:44.710Z,11.64
2023-01-13T11:43:55.175Z,11.50
2023-01-13T11:46:06.241Z,11.54
2023-01-13T11:48:15.119Z,11.63
2023-01-13T11:50:31.927Z,11.64
2023-01-13T11:52:41.482Z,11.72
2023-01-13T11:54:56.548Z,11.85
2023-01-13T11:57:05.437Z,11.70
2023-01-13T11:59:09.619Z,11.72
2023-01-13T12:01:23.784Z,11.69
2023-01-13T12:03:32.231Z,11.53
2023-01-13T12:05:51.400Z,11.59
2023-01-13T12:08:00.444Z,11.67
2023-01-13T12:10:13.543Z,11.92
2023-01-13T12:12:33.207Z,11.92
2023-01-13T12:14:46.044Z,12.03
2023-01-13T12:16:55.630Z,12.16
2023-01-13T12:19:08.085Z,12.00
2023-01-13T12:21:18.483Z,12.21
2023-01-13T12:23:39.239Z,12.17
2023-01-13T12:25:56.298Z,11.99
2023-01-13T12:28:09.297Z,12.17
2023-01-13T12:30:24.160Z,12.35
2023-01-13T12:32:34.757Z,12.26
2023-01-13T12:34:55.392Z,12.33
2023-01-13T12:39:37.881Z,12.46
2023-01-13T12:42:04.591Z,12.55
2023-01-13T12:44:12.473Z,12.63
2023-01-13T12:46:25.136Z,12.75
2023-01-13T12:48:36.474Z,12.71
2023-01-13T12:50:41.773Z,12.68
2023-01-13T12:52:45.834Z,12.71
2023-01-13T12:54:49.078Z,12.50
2023-01-13T12:56:51.590Z,12.56
2023-01-13T12:59:23.510Z,12.54
2023-01-13T13:01:38.493Z,12.77
2023-01-13T13:04:03.948Z,12.74
2023-01-13T13:06:13.781Z,12.66
2023-01-13T13:08:24.617Z,12.83
2023-01-13T13:10:30.635Z,12.90
2023-01-13T13:12:58.067Z,12.87
2023-01-13T13:15:09.393Z,12.95
2023-01-13T13:17:22.200Z,12.96
2023-01-13T13:19:52.854Z,12.37
2023-01-13T13:22:04.350Z,12.83
2023-01-13T13:24:23.790Z,12.61
2023-01-13T13:26:33.370Z,12.77
2023-01-13T13:28:42.523Z,12.63
2023-01-13T13:30:54.165Z,12.56
2023-01-13T13:33:08.644Z,12.56
2023-01-13T13:35:19.843Z,12.67
2023-01-13T13:37:28.296Z,12.82
2023-01-13T13:39:40.058Z,12.78
2023-01-13T13:41:49.001Z,12.72
2023-01-13T13:47:12.427Z,12.76
2023-01-13T13:49:26.063Z,12.80
2023-01-13T13:51:44.258Z,12.66
2023-01-13T13:53:48.983Z,12.61
2023-01-13T13:55:58.391Z,12.75
2023-01-13T13:58:08.053Z,12.75
2023-01-13T14:00:28.713Z,12.60
2023-01-13T14:03:10.344Z,12.73
2023-01-13T14:05:32.564Z,12.82
2023-01-13T14:07:49.428Z,12.83
2023-01-13T14:09:55.082Z,12.73
2023-01-13T14:12:06.386Z,12.85
2023-01-13T14:14:17.596Z,12.74
2023-01-13T14:16:20.023Z,12.64
2023-01-13T14:19:28.037Z,12.50
2023-01-13T14:21:31.573Z,12.77
2023-01-13T14:24:14.403Z,12.76
2023-01-13T14:26:40.021Z,12.75
2023-01-13T14:31:58.859Z,12.67
2023-01-13T14:34:32.956Z,12.88
2023-01-13T14:40:20.191Z,12.85
2023-01-13T14:40:20.770Z,12.76
2023-01-13T14:42:25.062Z,12.90
2023-01-13T14:44:47.458Z,12.60
2023-01-13T14:46:58.335Z,12.66
2023-01-13T14:49:01.287Z,12.55
2023-01-13T14:51:10.989Z,12.65
2023-01-13T14:53:22.075Z,12.77
2023-01-13T14:55:31.006Z,12.73
2023-01-13T14:57:39.310Z,12.68
2023-01-13T14:59:52.247Z,12.80
2023-01-13T15:01:55.218Z,12.66
2023-01-13T15:04:48.634Z,12.70
2023-01-13T15:06:56.622Z,12.76
2023-01-13T15:09:01.499Z,12.80
2023-01-13T15:11:24.919Z,12.73
2023-01-13T15:13:37.702Z,12.88
2023-01-13T15:15:43.546Z,12.92
2023-01-13T15:17:56.390Z,13.04
2023-01-13T15:20:01.171Z,13.00
2023-01-13T15:22:07.083Z,12.90
2023-01-13T15:24:12.806Z,12.84
2023-01-13T15:26:21.449Z,12.75
2023-01-13T15:28:26.087Z,12.82
2023-01-13T15:30:28.959Z,12.75
2023-01-13T15:35:55.674Z,12.56
2023-01-13T15:38:12.680Z,12.54
2023-01-13T15:40:41.304Z,12.39
2023-01-13T15:42:46.923Z,12.25
2023-01-13T15:44:56.757Z,12.06
2023-01-13T15:47:11.084Z,12.20
2023-01-13T15:49:35.975Z,12.33
2023-01-13T15:51:44.282Z,12.22
2023-01-13T15:53:50.624Z,12.08
2023-01-13T15:55:55.956Z,11.92
2023-01-13T15:58:07.537Z,11.95
2023-01-13T16:00:31.622Z,11.90
2023-01-13T16:02:44.808Z,11.97
2023-01-13T16:04:53.740Z,11.95
2023-01-13T16:07:08.483Z,11.84
2023-01-13T16:09:21.761Z,11.94
2023-01-13T16:11:27.273Z,11.84
2023-01-13T16:13:32.069Z,11.76
2023-01-13T16:15:39.432Z,11.78
2023-01-13T16:17:47.157Z,11.80
2023-01-13T16:19:54.406Z,11.85
2023-01-13T16:22:08.336Z,11.90
2023-01-13T16:24:10.798Z,11.67
2023-01-13T16:26:30.960Z,11.69
2023-01-13T16:28:36.505Z,11.77
2023-01-13T16:30:42.417Z,11.79
2023-01-13T16:32:44.670Z,11.87
2023-01-13T16:34:49.905Z,11.88
2023-01-13T16:36:52.304Z,11.81
2023-01-13T16:38:58.340Z,11.87
2023-01-13T16:41:01.450Z,11.68
2023-01-13T16:43:07.179Z,11.61
2023-01-13T16:45:12.504Z,11.53
2023-01-13T16:47:16.845Z,11.40
2023-01-13T16:49:19.751Z,11.50
2023-01-13T16:51:24.164Z,11.49
2023-01-13T16:53:26.446Z,11.59
2023-01-13T16:55:28.949Z,11.54
2023-01-13T16:57:35.374Z,11.46
2023-01-13T16:59:37.809Z,11.55
2023-01-13T17:01:43.083Z,11.56
2023-01-13T17:06:09.379Z,11.56
2023-01-13T17:08:19.822Z,11.54
2023-01-13T17:10:25.935Z,11.63
2023-01-13T17:12:33.111Z,11.57
2023-01-13T17:14:35.357Z,11.59
2023-01-13T17:16:38.257Z,11.45
2023-01-13T17:18:40.588Z,11.55
2023-01-13T17:20:42.741Z,11.50
2023-01-13T17:22:47.493Z,11.54
2023-01-13T17:24:54.011Z,11.41
2023-01-13T17:26:59.362Z,11.49
2023-01-13T17:29:06.443Z,11.32
2023-01-13T17:31:08.714Z,11.41
2023-01-13T17:33:10.909Z,11.46
2023-01-13T17:35:17.122Z,11.44
2023-01-13T17:37:22.158Z,11.49
2023-01-13T17:39:26.907Z,11.48
2023-01-13T17:41:29.598Z,11.45
2023-01-13T17:43:32.859Z,11.49
2023-01-13T17:45:41.149Z,11.35
2023-01-13T17:47:43.517Z,11.30
2023-01-13T17:49:46.157Z,11.22
2023-01-13T17:51:51.429Z,11.30
2023-01-13T17:53:54.562Z,11.20
2023-01-13T17:55:57.230Z,11.27
2023-01-13T17:57:59.618Z,11.20
2023-01-13T18:00:01.978Z,11.07
2023-01-13T18:02:11.962Z,11.11
2023-01-13T18:04:17.356Z,11.18
2023-01-13T18:06:23.517Z,11.10
2023-01-13T18:08:25.927Z,11.07
2023-01-13T18:10:34.157Z,11.15
2023-01-13T18:12:43.758Z,11.11
2023-01-13T18:14:47.611Z,11.22
2023-01-13T18:16:56.079Z,11.20
2023-01-13T18:19:42.983Z,11.19
2023-01-13T18:21:50.683Z,11.26
2023-01-13T18:24:01.638Z,11.25
2023-01-13T18:26:09.892Z,11.22
2023-01-13T18:28:17.515Z,11.17
2023-01-13T18:30:20.933Z,11.07
2023-01-13T18:32:36.929Z,11.09
2023-01-13T18:34:47.907Z,11.04
2023-01-13T18:36:54.339Z,10.92
2023-01-13T18:39:10.563Z,10.90
2023-01-13T18:41:19.165Z,10.92
2023-01-13T18:43:30.171Z,10.81
2023-01-13T18:45:39.326Z,10.75
2023-01-13T18:47:44.983Z,10.81
2023-01-13T18:49:47.350Z,10.70
2023-01-13T18:51:56.012Z,10.75
2023-01-13T18:54:01.494Z,10.70
2023-01-13T18:56:15.541Z,10.68
2023-01-13T18:58:20.758Z,10.72
2023-01-13T19:00:29.074Z,10.56
2023-01-13T19:02:32.103Z,10.61
2023-01-13T19:04:36.060Z,10.51
2023-01-13T19:06:40.850Z,10.57
2023-01-13T19:08:48.053Z,10.58
2023-01-13T19:11:05.093Z,10.44
2023-01-13T19:13:37.354Z,10.51
2023-01-13T19:15:39.481Z,10.30
2023-01-13T19:17:41.814Z,10.40
2023-01-13T19:19:46.469Z,10.44
2023-01-13T19:21:48.631Z,10.43
2023-01-13T19:24:01.234Z,10.44
2023-01-13T19:26:13.772Z,10.41
2023-01-13T19:28:15.966Z,10.46
2023-01-13T19:30:18.753Z,10.41
2023-01-13T19:32:27.471Z,10.49
2023-01-13T19:34:29.932Z,10.49
2023-01-13T19:36:32.315Z,10.52
2023-01-13T19:38:38.643Z,10.52
2023-01-13T19:40:53.344Z,10.51
2023-01-13T19:42:58.710Z,10.50
2023-01-13T19:45:07.403Z,10.50
2023-01-13T19:47:21.105Z,10.54
2023-01-13T19:49:23.272Z,10.54
2023-01-13T19:52:01.738Z,10.49
2023-01-13T19:54:07.461Z,10.53
2023-01-13T19:56:16.899Z,10.34
2023-01-13T19:58:20.157Z,10.40
2023-01-13T20:03:46.366Z,10.46
2023-01-13T20:06:14.464Z,10.38
2023-01-13T20:08:29.762Z,10.31
2023-01-13T20:10:33.080Z,10.30
2023-01-13T20:12:35.595Z,10.30
2023-01-13T20:14:38.113Z,10.22
2023-01-13T20:16:45.494Z,10.09
2023-01-13T20:18:53.897Z,10.07
2023-01-13T20:20:56.047Z,10.06
2023-01-13T20:23:02.917Z,9.92
2023-01-13T20:25:08.173Z,9.99
2023-01-13T20:27:13.049Z,9.98
2023-01-13T20:29:24.080Z,10.09
2023-01-13T20:31:26.408Z,9.98
2023-01-13T20:33:28.629Z,10.08
2023-01-13T20:35:30.924Z,10.08
2023-01-13T20:38:31.919Z,9.99
2023-01-13T20:40:44.978Z,9.93
2023-01-13T20:42:47.379Z,9.89
2023-01-13T20:44:50.001Z,9.91
2023-01-13T20:47:01.429Z,9.89
2023-01-13T20:49:06.326Z,9.86
2023-01-13T20:51:08.603Z,9.96
2023-01-13T20:53:16.418Z,9.93
2023-01-13T20:55:21.873Z,9.74
2023-01-13T20:57:24.159Z,9.76
2023-01-13T20:59:26.605Z,9.77
2023-01-13T21:01:29.217Z,9.72
2023-01-13T21:03:54.485Z,9.74
2023-01-13T21:06:36.706Z,9.72
2023-01-13T21:08:56.397Z,9.65
2023-01-13T21:11:05.304Z,9.61
2023-01-13T21:13:17.520Z,9.76
2023-01-13T21:15:32.706Z,9.79
2023-01-13T21:17:51.371Z,9.68
2023-01-13T21:19:53.835Z,9.79
2023-01-13T21:21:59.272Z,9.83
2023-01-13T21:24:28.588Z,9.78
2023-01-13T21:26:35.031Z,9.79
2023-01-13T21:28:40.378Z,9.77
2023-01-13T21:30:44.122Z,9.66
2023-01-13T21:32:50.169Z,9.57
2023-01-13T21:34:54.741Z,9.61
2023-01-13T21:37:22.640Z,9.69
2023-01-13T21:39:29.674Z,9.52
2023-01-13T21:41:37.785Z,9.60
2023-01-13T21:43:46.306Z,9.60
2023-01-13T21:45:58.477Z,9.57
2023-01-13T21:48:04.637Z,9.58
2023-01-13T21:50:15.480Z,9.53
2023-01-13T21:52:17.721Z,9.59
2023-01-13T21:57:18.495Z,9.54
2023-01-13T21:59:38.745Z,9.58
2023-01-13T22:02:22.917Z,9.44
2023-01-13T22:04:14.468Z,9.58
2023-01-13T22:06:51.261Z,9.41
2023-01-13T22:09:01.334Z,9.51
2023-01-13T22:11:41.104Z,9.53
2023-01-13T22:13:50.697Z,9.64
2023-01-13T22:15:54.622Z,9.49
2023-01-13T22:18:01.003Z,9.24
2023-01-13T22:20:07.065Z,9.40
2023-01-13T22:22:20.410Z,9.29
2023-01-13T22:24:30.588Z,9.36
2023-01-13T22:26:35.503Z,9.35
2023-01-13T22:28:54.725Z,9.23
2023-01-13T22:30:58.977Z,9.36
2023-01-13T22:33:08.765Z,9.37
2023-01-13T22:35:13.253Z,9.44
2023-01-13T22:37:33.905Z,9.54
2023-01-13T22:40:04.653Z,9.54
2023-01-13T22:42:12.360Z,9.59
2023-01-13T22:44:23.221Z,9.43
2023-01-13T22:46:28.217Z,9.48
2023-01-13T22:48:41.384Z,9.44
2023-01-13T22:50:53.034Z,9.46
2023-01-13T22:53:04.830Z,9.46
2023-01-13T22:55:35.165Z,9.51
2023-01-13T22:57:48.472Z,9.57
2023-01-13T22:59:53.902Z,9.55
2023-01-13T23:02:07.515Z,9.38
2023-01-13T23:04:13.553Z,9.54
2023-01-13T23:06:44.096Z,9.53
2023-01-13T23:08:53.221Z,9.49
2023-01-13T23:11:06.081Z,9.55
2023-01-13T23:13:09.702Z,9.73
2023-01-13T23:15:16.200Z,9.68
2023-01-13T23:17:24.308Z,9.71
2023-01-13T23:19:32.026Z,9.72
2023-01-13T23:21:38.020Z,9.73
2023-01-13T23:23:41.474Z,9.80
2023-01-13T23:25:58.976Z,9.75
2023-01-13T23:28:04.901Z,9.67
2023-01-13T23:30:13.558Z,9.75
2023-01-13T23:32:24.546Z,9.70
2023-01-13T23:34:50.687Z,9.79
2023-01-13T23:37:07.682Z,9.84
2023-01-13T23:39:25.958Z,9.84
2023-01-13T23:41:31.465Z,9.93
2023-01-13T23:43:40.557Z,9.88
2023-01-13T23:45:43.163Z,9.89
2023-01-13T23:47:45.341Z,9.90
2023-01-13T23:49:48.461Z,9.99
2023-01-13T23:51:52.071Z,9.86
2023-01-13T23:53:56.164Z,9.86
2023-01-13T23:55:59.060Z,9.86
2023-01-13T23:58:01.325Z,9.91
